sensor_id;sensor_type;location;lat;lon;timestamp;pressure;altitude;pressure_sealevel;temperature;humidity
76201;BME280;64981;52.930;9.266;2023-02-18T00:00:53;101551.16;;;6.13;67.73
76201;BME280;64981;52.930;9.266;2023-02-18T00:03:19;101529.75;;;5.95;67.50
76201;BME280;64981;52.930;9.266;2023-02-18T00:05:44;101547.00;;;6.22;67.13
76201;BME280;64981;52.930;9.266;2023-02-18T00:08:10;101556.31;;;6.26;67.40
76201;BME280;64981;52.930;9.266;2023-02-18T00:10:35;101565.41;;;6.33;67.14
76201;BME280;64981;52.930;9.266;2023-02-18T00:13:01;101578.31;;;6.36;67.58
76201;BME280;64981;52.930;9.266;2023-02-18T00:15:27;101553.09;;;6.33;67.12
76201;BME280;64981;52.930;9.266;2023-02-18T00:17:52;101571.84;;;6.29;67.69
76201;BME280;64981;52.930;9.266;2023-02-18T00:20:20;101577.16;;;6.16;68.16
76201;BME280;64981;52.930;9.266;2023-02-18T00:22:45;101583.25;;;6.28;68.20
76201;BME280;64981;52.930;9.266;2023-02-18T00:25:11;101573.84;;;6.25;67.92
76201;BME280;64981;52.930;9.266;2023-02-18T00:30:08;101580.25;;;6.45;67.61
76201;BME280;64981;52.930;9.266;2023-02-18T00:32:34;101575.09;;;6.43;67.83
76201;BME280;64981;52.930;9.266;2023-02-18T00:35:00;101580.56;;;6.40;68.21
76201;BME280;64981;52.930;9.266;2023-02-18T00:37:26;101582.34;;;6.40;68.01
76201;BME280;64981;52.930;9.266;2023-02-18T00:39:51;101574.84;;;6.46;67.75
76201;BME280;64981;52.930;9.266;2023-02-18T00:42:17;101581.19;;;6.44;68.23
76201;BME280;64981;52.930;9.266;2023-02-18T00:44:42;101578.31;;;6.47;67.97
76201;BME280;64981;52.930;9.266;2023-02-18T00:47:08;101571.97;;;6.38;68.89
76201;BME280;64981;52.930;9.266;2023-02-18T00:49:34;101578.75;;;6.30;69.53
76201;BME280;64981;52.930;9.266;2023-02-18T00:51:59;101573.38;;;6.31;69.34
76201;BME280;64981;52.930;9.266;2023-02-18T00:54:25;101574.75;;;6.48;68.43
76201;BME280;64981;52.930;9.266;2023-02-18T00:56:50;101584.78;;;6.54;68.70
76201;BME280;64981;52.930;9.266;2023-02-18T00:59:16;101582.78;;;6.57;68.87
76201;BME280;64981;52.930;9.266;2023-02-18T01:01:41;101579.69;;;6.64;68.60
76201;BME280;64981;52.930;9.266;2023-02-18T01:04:07;101574.78;;;6.59;68.82
76201;BME280;64981;52.930;9.266;2023-02-18T01:06:33;101580.88;;;6.71;68.51
76201;BME280;64981;52.930;9.266;2023-02-18T01:08:58;101579.31;;;6.57;69.29
76201;BME280;64981;52.930;9.266;2023-02-18T01:11:24;101563.69;;;6.67;68.37
76201;BME280;64981;52.930;9.266;2023-02-18T01:13:50;101557.38;;;6.69;68.42
76201;BME280;64981;52.930;9.266;2023-02-18T01:16:16;101569.34;;;6.84;68.51
76201;BME280;64981;52.930;9.266;2023-02-18T01:18:43;101565.41;;;6.90;68.04
76201;BME280;64981;52.930;9.266;2023-02-18T01:21:09;101567.56;;;6.96;68.05
76201;BME280;64981;52.930;9.266;2023-02-18T01:23:37;101557.56;;;7.01;67.55
76201;BME280;64981;52.930;9.266;2023-02-18T01:26:04;101557.44;;;6.91;67.87
76201;BME280;64981;52.930;9.266;2023-02-18T01:28:29;101553.25;;;7.00;67.95
76201;BME280;64981;52.930;9.266;2023-02-18T01:30:55;101558.50;;;7.00;67.60
76201;BME280;64981;52.930;9.266;2023-02-18T01:33:21;101561.88;;;7.02;67.33
76201;BME280;64981;52.930;9.266;2023-02-18T01:35:47;101571.28;;;7.04;67.46
76201;BME280;64981;52.930;9.266;2023-02-18T01:38:13;101555.41;;;7.17;66.80
76201;BME280;64981;52.930;9.266;2023-02-18T01:40:49;101557.09;;;7.07;67.26
76201;BME280;64981;52.930;9.266;2023-02-18T01:43:17;101556.34;;;7.16;66.91
76201;BME280;64981;52.930;9.266;2023-02-18T01:45:50;101558.63;;;7.21;66.71
76201;BME280;64981;52.930;9.266;2023-02-18T01:48:22;101558.50;;;7.22;67.12
76201;BME280;64981;52.930;9.266;2023-02-18T01:51:03;101555.38;;;7.28;66.65
76201;BME280;64981;52.930;9.266;2023-02-18T01:53:37;101552.31;;;7.23;66.59
76201;BME280;64981;52.930;9.266;2023-02-18T01:56:07;101546.69;;;7.17;66.57
76201;BME280;64981;52.930;9.266;2023-02-18T01:58:35;101553.13;;;7.24;67.10
76201;BME280;64981;52.930;9.266;2023-02-18T02:01:01;101555.00;;;7.44;66.49
76201;BME280;64981;52.930;9.266;2023-02-18T02:03:27;101551.44;;;7.45;66.45
76201;BME280;64981;52.930;9.266;2023-02-18T02:05:53;101549.91;;;7.42;66.49
76201;BME280;64981;52.930;9.266;2023-02-18T02:08:18;101535.81;;;7.32;67.03
76201;BME280;64981;52.930;9.266;2023-02-18T02:14:07;101525.16;;;7.45;66.62
76201;BME280;64981;52.930;9.266;2023-02-18T02:25:44;101533.84;;;7.56;66.30
76201;BME280;64981;52.930;9.266;2023-02-18T02:31:52;101530.38;;;7.56;66.34
76201;BME280;64981;52.930;9.266;2023-02-18T02:34:50;101528.47;;;7.47;66.78
76201;BME280;64981;52.930;9.266;2023-02-18T02:37:33;101518.69;;;7.49;66.67
76201;BME280;64981;52.930;9.266;2023-02-18T02:43:30;101517.72;;;7.50;66.56
76201;BME280;64981;52.930;9.266;2023-02-18T02:46:10;101520.00;;;7.54;66.41
76201;BME280;64981;52.930;9.266;2023-02-18T02:48:49;101503.97;;;7.46;66.40
76201;BME280;64981;52.930;9.266;2023-02-18T02:51:38;101503.41;;;7.43;66.52
76201;BME280;64981;52.930;9.266;2023-02-18T02:54:20;101504.22;;;7.43;66.67
76201;BME280;64981;52.930;9.266;2023-02-18T02:59:23;101509.13;;;7.48;66.26
76201;BME280;64981;52.930;9.266;2023-02-18T03:02:25;101508.38;;;7.57;66.18
76201;BME280;64981;52.930;9.266;2023-02-18T03:05:27;101472.84;;;7.42;66.04
76201;BME280;64981;52.930;9.266;2023-02-18T03:11:11;101480.56;;;7.54;66.03
76201;BME280;64981;52.930;9.266;2023-02-18T03:19:37;101473.91;;;7.71;65.29
76201;BME280;64981;52.930;9.266;2023-02-18T03:22:24;101453.72;;;7.72;65.41
76201;BME280;64981;52.930;9.266;2023-02-18T03:24:55;101438.25;;;7.57;64.85
76201;BME280;64981;52.930;9.266;2023-02-18T03:27:31;101459.13;;;7.70;65.06
76201;BME280;64981;52.930;9.266;2023-02-18T03:30:40;101463.97;;;7.75;64.86
76201;BME280;64981;52.930;9.266;2023-02-18T03:32:52;101460.66;;;7.73;64.99
76201;BME280;64981;52.930;9.266;2023-02-18T03:35:22;101436.53;;;7.68;64.82
76201;BME280;64981;52.930;9.266;2023-02-18T03:37:56;101454.19;;;7.77;64.75
76201;BME280;64981;52.930;9.266;2023-02-18T03:40:27;101465.50;;;7.77;65.05
76201;BME280;64981;52.930;9.266;2023-02-18T03:42:53;101456.69;;;7.78;65.24
76201;BME280;64981;52.930;9.266;2023-02-18T03:45:18;101441.16;;;7.75;65.20
76201;BME280;64981;52.930;9.266;2023-02-18T03:47:44;101453.19;;;7.78;65.80
76201;BME280;64981;52.930;9.266;2023-02-18T03:50:10;101451.31;;;7.80;66.38
76201;BME280;64981;52.930;9.266;2023-02-18T03:52:36;101457.31;;;7.71;66.70
76201;BME280;64981;52.930;9.266;2023-02-18T03:55:03;101440.72;;;7.70;66.45
76201;BME280;64981;52.930;9.266;2023-02-18T03:57:30;101473.66;;;7.74;67.58
76201;BME280;64981;52.930;9.266;2023-02-18T03:59:55;101465.91;;;7.73;67.81
76201;BME280;64981;52.930;9.266;2023-02-18T04:02:21;101466.03;;;7.71;68.14
76201;BME280;64981;52.930;9.266;2023-02-18T04:04:46;101465.16;;;7.82;67.98
76201;BME280;64981;52.930;9.266;2023-02-18T04:07:12;101453.69;;;7.83;67.77
76201;BME280;64981;52.930;9.266;2023-02-18T04:09:37;101452.63;;;7.74;68.29
76201;BME280;64981;52.930;9.266;2023-02-18T04:12:03;101436.41;;;7.69;68.99
76201;BME280;64981;52.930;9.266;2023-02-18T04:14:29;101444.19;;;7.71;69.93
76201;BME280;64981;52.930;9.266;2023-02-18T04:16:54;101449.47;;;7.59;70.48
76201;BME280;64981;52.930;9.266;2023-02-18T04:19:20;101443.00;;;7.63;71.11
76201;BME280;64981;52.930;9.266;2023-02-18T04:21:45;101441.22;;;7.64;71.06
76201;BME280;64981;52.930;9.266;2023-02-18T04:24:11;101430.22;;;7.59;71.24
76201;BME280;64981;52.930;9.266;2023-02-18T04:26:36;101442.28;;;7.61;70.85
76201;BME280;64981;52.930;9.266;2023-02-18T04:29:02;101435.78;;;7.45;71.55
76201;BME280;64981;52.930;9.266;2023-02-18T04:31:28;101417.25;;;7.46;71.50
76201;BME280;64981;52.930;9.266;2023-02-18T04:33:53;101426.69;;;7.49;71.43
76201;BME280;64981;52.930;9.266;2023-02-18T04:36:19;101421.44;;;7.49;71.85
76201;BME280;64981;52.930;9.266;2023-02-18T04:38:45;101407.28;;;7.29;72.88
76201;BME280;64981;52.930;9.266;2023-02-18T04:41:10;101426.91;;;7.46;72.40
76201;BME280;64981;52.930;9.266;2023-02-18T04:43:37;101393.94;;;7.21;73.89
76201;BME280;64981;52.930;9.266;2023-02-18T04:46:03;101403.06;;;7.38;73.61
76201;BME280;64981;52.930;9.266;2023-02-18T04:48:29;101404.63;;;7.40;73.29
76201;BME280;64981;52.930;9.266;2023-02-18T04:50:55;101392.13;;;7.33;74.50
76201;BME280;64981;52.930;9.266;2023-02-18T04:53:21;101380.28;;;7.27;74.31
76201;BME280;64981;52.930;9.266;2023-02-18T04:55:50;101378.97;;;7.33;74.97
76201;BME280;64981;52.930;9.266;2023-02-18T04:58:17;101363.00;;;7.25;75.03
76201;BME280;64981;52.930;9.266;2023-02-18T05:00:43;101349.16;;;7.23;75.06
76201;BME280;64981;52.930;9.266;2023-02-18T05:03:08;101364.78;;;7.24;75.32
76201;BME280;64981;52.930;9.266;2023-02-18T05:05:34;101366.44;;;7.25;75.44
76201;BME280;64981;52.930;9.266;2023-02-18T05:08:00;101348.94;;;7.15;75.33
76201;BME280;64981;52.930;9.266;2023-02-18T05:10:26;101370.63;;;7.28;75.22
76201;BME280;64981;52.930;9.266;2023-02-18T05:12:52;101361.78;;;7.29;75.73
76201;BME280;64981;52.930;9.266;2023-02-18T05:15:17;101363.81;;;7.25;75.53
76201;BME280;64981;52.930;9.266;2023-02-18T05:17:43;101360.94;;;7.28;75.65
76201;BME280;64981;52.930;9.266;2023-02-18T05:20:09;101361.25;;;7.14;76.82
76201;BME280;64981;52.930;9.266;2023-02-18T05:22:35;101370.63;;;7.28;75.79
76201;BME280;64981;52.930;9.266;2023-02-18T05:25:01;101370.41;;;7.20;76.40
76201;BME280;64981;52.930;9.266;2023-02-18T05:27:27;101350.94;;;7.22;75.60
76201;BME280;64981;52.930;9.266;2023-02-18T05:29:52;101349.84;;;7.25;75.90
76201;BME280;64981;52.930;9.266;2023-02-18T05:32:18;101344.16;;;7.20;76.21
76201;BME280;64981;52.930;9.266;2023-02-18T05:34:43;101338.75;;;7.21;76.30
76201;BME280;64981;52.930;9.266;2023-02-18T05:37:09;101335.88;;;7.24;76.77
76201;BME280;64981;52.930;9.266;2023-02-18T05:39:35;101330.06;;;7.21;76.98
76201;BME280;64981;52.930;9.266;2023-02-18T05:42:00;101321.97;;;7.13;77.82
76201;BME280;64981;52.930;9.266;2023-02-18T05:44:26;101314.06;;;7.13;77.82
76201;BME280;64981;52.930;9.266;2023-02-18T05:46:55;101305.34;;;7.12;77.78
76201;BME280;64981;52.930;9.266;2023-02-18T05:49:22;101288.75;;;7.11;78.04
76201;BME280;64981;52.930;9.266;2023-02-18T05:51:48;101279.56;;;6.85;78.91
76201;BME280;64981;52.930;9.266;2023-02-18T05:54:14;101283.47;;;7.02;78.94
76201;BME280;64981;52.930;9.266;2023-02-18T05:56:40;101275.59;;;7.02;79.13
76201;BME280;64981;52.930;9.266;2023-02-18T05:59:05;101273.56;;;6.94;79.10
76201;BME280;64981;52.930;9.266;2023-02-18T06:01:31;101272.81;;;7.03;79.23
76201;BME280;64981;52.930;9.266;2023-02-18T06:03:57;101270.97;;;7.15;78.54
76201;BME280;64981;52.930;9.266;2023-02-18T06:06:22;101256.94;;;7.26;78.36
76201;BME280;64981;52.930;9.266;2023-02-18T06:08:48;101227.97;;;6.95;79.05
76201;BME280;64981;52.930;9.266;2023-02-18T06:11:13;101260.97;;;7.09;79.11
76201;BME280;64981;52.930;9.266;2023-02-18T06:13:39;101232.66;;;6.92;79.39
76201;BME280;64981;52.930;9.266;2023-02-18T06:16:05;101230.03;;;6.92;79.66
76201;BME280;64981;52.930;9.266;2023-02-18T06:18:30;101222.44;;;6.67;80.96
76201;BME280;64981;52.930;9.266;2023-02-18T06:20:56;101223.72;;;6.83;80.15
76201;BME280;64981;52.930;9.266;2023-02-18T06:23:22;101230.91;;;6.70;81.05
76201;BME280;64981;52.930;9.266;2023-02-18T06:25:48;101222.06;;;6.82;80.71
76201;BME280;64981;52.930;9.266;2023-02-18T06:28:15;101214.56;;;6.78;81.09
76201;BME280;64981;52.930;9.266;2023-02-18T06:30:41;101195.31;;;6.88;80.84
76201;BME280;64981;52.930;9.266;2023-02-18T06:33:06;101187.94;;;6.82;80.84
76201;BME280;64981;52.930;9.266;2023-02-18T06:35:32;101186.41;;;6.80;81.37
76201;BME280;64981;52.930;9.266;2023-02-18T06:37:59;101167.13;;;6.58;82.37
76201;BME280;64981;52.930;9.266;2023-02-18T06:40:25;101179.19;;;6.61;82.32
76201;BME280;64981;52.930;9.266;2023-02-18T06:42:51;101187.34;;;6.68;81.87
76201;BME280;64981;52.930;9.266;2023-02-18T06:45:16;101181.53;;;6.64;82.41
76201;BME280;64981;52.930;9.266;2023-02-18T06:47:42;101164.19;;;6.73;82.06
76201;BME280;64981;52.930;9.266;2023-02-18T06:50:08;101161.94;;;6.79;81.24
76201;BME280;64981;52.930;9.266;2023-02-18T06:52:33;101152.41;;;6.67;81.77
76201;BME280;64981;52.930;9.266;2023-02-18T06:55:00;101152.19;;;6.38;83.65
76201;BME280;64981;52.930;9.266;2023-02-18T06:57:26;101133.41;;;6.43;82.89
76201;BME280;64981;52.930;9.266;2023-02-18T06:59:51;101145.41;;;6.56;82.27
76201;BME280;64981;52.930;9.266;2023-02-18T07:02:17;101129.16;;;6.63;82.25
76201;BME280;64981;52.930;9.266;2023-02-18T07:04:42;101133.38;;;6.54;83.33
76201;BME280;64981;52.930;9.266;2023-02-18T07:07:09;101129.94;;;6.74;81.92
76201;BME280;64981;52.930;9.266;2023-02-18T07:09:35;101114.00;;;6.66;82.70
76201;BME280;64981;52.930;9.266;2023-02-18T07:12:01;101108.75;;;6.87;81.78
76201;BME280;64981;52.930;9.266;2023-02-18T07:14:26;101104.28;;;6.78;81.88
76201;BME280;64981;52.930;9.266;2023-02-18T07:16:52;101099.94;;;6.88;81.66
76201;BME280;64981;52.930;9.266;2023-02-18T07:19:18;101100.34;;;6.72;82.55
76201;BME280;64981;52.930;9.266;2023-02-18T07:21:43;101089.78;;;6.63;82.27
76201;BME280;64981;52.930;9.266;2023-02-18T07:24:09;101091.31;;;6.65;83.14
76201;BME280;64981;52.930;9.266;2023-02-18T07:26:35;101082.44;;;6.56;83.38
76201;BME280;64981;52.930;9.266;2023-02-18T07:29:00;101076.94;;;6.59;83.12
76201;BME280;64981;52.930;9.266;2023-02-18T07:31:26;101072.06;;;6.76;82.06
76201;BME280;64981;52.930;9.266;2023-02-18T07:33:52;101073.28;;;6.72;83.55
76201;BME280;64981;52.930;9.266;2023-02-18T07:36:17;101064.13;;;6.66;83.70
76201;BME280;64981;52.930;9.266;2023-02-18T07:38:43;101062.53;;;6.54;84.53
76201;BME280;64981;52.930;9.266;2023-02-18T07:41:17;101059.84;;;6.44;84.49
76201;BME280;64981;52.930;9.266;2023-02-18T07:43:44;101047.19;;;6.18;85.74
76201;BME280;64981;52.930;9.266;2023-02-18T07:46:10;101039.41;;;6.27;85.48
76201;BME280;64981;52.930;9.266;2023-02-18T07:48:35;101035.91;;;6.38;85.20
76201;BME280;64981;52.930;9.266;2023-02-18T07:51:05;101023.09;;;6.44;84.74
76201;BME280;64981;52.930;9.266;2023-02-18T07:53:30;101031.09;;;6.43;85.27
76201;BME280;64981;52.930;9.266;2023-02-18T07:55:58;101021.56;;;6.63;84.79
76201;BME280;64981;52.930;9.266;2023-02-18T07:58:27;101000.38;;;6.34;85.70
76201;BME280;64981;52.930;9.266;2023-02-18T08:00:54;100912.63;;;5.96;86.01
76201;BME280;64981;52.930;9.266;2023-02-18T08:03:23;100956.94;;;6.41;84.89
76201;BME280;64981;52.930;9.266;2023-02-18T08:05:50;100982.13;;;6.53;84.95
76201;BME280;64981;52.930;9.266;2023-02-18T08:08:20;100960.09;;;6.35;85.79
76201;BME280;64981;52.930;9.266;2023-02-18T08:10:47;100952.59;;;6.30;85.24
76201;BME280;64981;52.930;9.266;2023-02-18T08:13:13;100977.72;;;6.53;85.10
76201;BME280;64981;52.930;9.266;2023-02-18T08:15:39;100968.44;;;6.49;85.15
76201;BME280;64981;52.930;9.266;2023-02-18T08:18:07;100934.16;;;6.21;85.93
76201;BME280;64981;52.930;9.266;2023-02-18T08:20:36;100928.19;;;6.30;85.87
76201;BME280;64981;52.930;9.266;2023-02-18T08:23:03;100957.53;;;6.44;85.96
76201;BME280;64981;52.930;9.266;2023-02-18T08:25:28;100958.72;;;6.61;85.74
76201;BME280;64981;52.930;9.266;2023-02-18T08:27:54;100953.16;;;6.34;87.01
76201;BME280;64981;52.930;9.266;2023-02-18T08:30:20;100943.28;;;6.47;86.84
76201;BME280;64981;52.930;9.266;2023-02-18T08:32:45;100930.34;;;6.55;86.70
76201;BME280;64981;52.930;9.266;2023-02-18T08:35:11;100938.31;;;6.74;86.55
76201;BME280;64981;52.930;9.266;2023-02-18T08:37:37;100936.34;;;6.97;85.55
76201;BME280;64981;52.930;9.266;2023-02-18T08:40:03;100930.81;;;7.00;85.63
76201;BME280;64981;52.930;9.266;2023-02-18T08:42:30;100928.06;;;7.01;86.02
76201;BME280;64981;52.930;9.266;2023-02-18T08:44:56;100928.09;;;7.11;85.89
76201;BME280;64981;52.930;9.266;2023-02-18T08:47:21;100922.56;;;7.14;86.85
76201;BME280;64981;52.930;9.266;2023-02-18T08:49:47;100919.69;;;7.27;86.63
76201;BME280;64981;52.930;9.266;2023-02-18T08:52:12;100911.38;;;7.22;87.40
76201;BME280;64981;52.930;9.266;2023-02-18T08:54:38;100904.44;;;7.30;87.92
76201;BME280;64981;52.930;9.266;2023-02-18T08:57:04;100899.34;;;7.29;89.34
76201;BME280;64981;52.930;9.266;2023-02-18T08:59:29;100894.66;;;7.71;88.24
76201;BME280;64981;52.930;9.266;2023-02-18T09:01:55;100886.06;;;7.78;88.75
76201;BME280;64981;52.930;9.266;2023-02-18T09:04:20;100886.50;;;7.83;88.96
76201;BME280;64981;52.930;9.266;2023-02-18T09:06:47;100887.28;;;7.84;90.29
76201;BME280;64981;52.930;9.266;2023-02-18T09:09:15;100881.59;;;7.98;89.80
76201;BME280;64981;52.930;9.266;2023-02-18T09:11:41;100875.50;;;7.97;90.96
76201;BME280;64981;52.930;9.266;2023-02-18T09:14:07;100884.19;;;8.17;90.91
76201;BME280;64981;52.930;9.266;2023-02-18T09:16:33;100878.91;;;8.27;90.83
76201;BME280;64981;52.930;9.266;2023-02-18T09:18:59;100872.97;;;8.52;89.85
76201;BME280;64981;52.930;9.266;2023-02-18T09:21:24;100869.22;;;8.54;90.24
76201;BME280;64981;52.930;9.266;2023-02-18T09:23:50;100881.50;;;8.73;90.03
76201;BME280;64981;52.930;9.266;2023-02-18T09:26:19;100875.69;;;8.69;90.47
76201;BME280;64981;52.930;9.266;2023-02-18T09:28:50;100881.44;;;8.83;90.08
76201;BME280;64981;52.930;9.266;2023-02-18T09:31:20;100865.47;;;8.84;89.74
76201;BME280;64981;52.930;9.266;2023-02-18T09:33:56;100872.66;;;8.92;89.93
76201;BME280;64981;52.930;9.266;2023-02-18T09:36:23;100856.13;;;8.99;89.50
76201;BME280;64981;52.930;9.266;2023-02-18T09:38:49;100855.16;;;9.18;89.05
76201;BME280;64981;52.930;9.266;2023-02-18T09:41:45;100849.78;;;9.27;88.43
76201;BME280;64981;52.930;9.266;2023-02-18T09:47:02;100854.97;;;9.37;88.10
76201;BME280;64981;52.930;9.266;2023-02-18T09:49:34;100835.88;;;9.17;88.62
76201;BME280;64981;52.930;9.266;2023-02-18T09:52:12;100828.56;;;9.29;88.04
76201;BME280;64981;52.930;9.266;2023-02-18T09:54:38;100842.19;;;9.42;87.43
76201;BME280;64981;52.930;9.266;2023-02-18T09:57:14;100835.28;;;9.67;86.55
76201;BME280;64981;52.930;9.266;2023-02-18T09:59:46;100838.16;;;9.56;87.16
76201;BME280;64981;52.930;9.266;2023-02-18T10:02:14;100831.88;;;9.74;85.96
76201;BME280;64981;52.930;9.266;2023-02-18T10:04:44;100827.50;;;9.65;86.13
76201;BME280;64981;52.930;9.266;2023-02-18T10:07:23;100832.34;;;9.70;86.35
76201;BME280;64981;52.930;9.266;2023-02-18T10:09:51;100836.88;;;9.77;86.38
76201;BME280;64981;52.930;9.266;2023-02-18T10:12:19;100814.13;;;9.59;86.25
76201;BME280;64981;52.930;9.266;2023-02-18T10:14:50;100833.84;;;9.72;86.54
76201;BME280;64981;52.930;9.266;2023-02-18T10:17:17;100837.53;;;9.79;86.13
76201;BME280;64981;52.930;9.266;2023-02-18T10:19:47;100832.78;;;9.83;85.35
76201;BME280;64981;52.930;9.266;2023-02-18T10:22:15;100822.00;;;9.76;85.43
76201;BME280;64981;52.930;9.266;2023-02-18T10:24:46;100832.91;;;9.82;85.01
76201;BME280;64981;52.930;9.266;2023-02-18T10:27:22;100834.50;;;9.74;85.22
76201;BME280;64981;52.930;9.266;2023-02-18T10:29:49;100849.22;;;9.77;85.14
76201;BME280;64981;52.930;9.266;2023-02-18T10:32:22;100843.03;;;9.68;85.08
76201;BME280;64981;52.930;9.266;2023-02-18T10:35:34;100835.44;;;9.91;83.97
76201;BME280;64981;52.930;9.266;2023-02-18T10:38:03;100837.56;;;9.88;84.03
76201;BME280;64981;52.930;9.266;2023-02-18T10:40:54;100815.34;;;9.64;84.18
76201;BME280;64981;52.930;9.266;2023-02-18T10:43:37;100852.22;;;9.82;84.47
76201;BME280;64981;52.930;9.266;2023-02-18T10:46:30;100827.94;;;10.04;83.40
76201;BME280;64981;52.930;9.266;2023-02-18T10:49:26;100843.25;;;10.01;83.57
76201;BME280;64981;52.930;9.266;2023-02-18T10:52:01;100839.03;;;9.82;84.47
76201;BME280;64981;52.930;9.266;2023-02-18T10:54:48;100830.66;;;9.87;84.19
76201;BME280;64981;52.930;9.266;2023-02-18T10:57:21;100825.28;;;9.96;84.00
76201;BME280;64981;52.930;9.266;2023-02-18T11:00:03;100790.69;;;9.82;83.52
76201;BME280;64981;52.930;9.266;2023-02-18T11:02:37;100836.50;;;9.98;83.86
76201;BME280;64981;52.930;9.266;2023-02-18T11:05:21;100817.59;;;9.85;84.02
76201;BME280;64981;52.930;9.266;2023-02-18T11:07:51;100833.38;;;9.77;84.83
76201;BME280;64981;52.930;9.266;2023-02-18T11:10:29;100813.72;;;9.97;84.11
76201;BME280;64981;52.930;9.266;2023-02-18T11:13:07;100806.91;;;9.87;84.33
76201;BME280;64981;52.930;9.266;2023-02-18T11:15:33;100814.22;;;10.01;83.85
76201;BME280;64981;52.930;9.266;2023-02-18T11:18:28;100809.47;;;10.04;83.86
76201;BME280;64981;52.930;9.266;2023-02-18T11:20:57;100810.72;;;9.92;84.54
76201;BME280;64981;52.930;9.266;2023-02-18T11:23:23;100790.66;;;9.99;83.43
76201;BME280;64981;52.930;9.266;2023-02-18T11:26:11;100811.25;;;9.96;84.22
76201;BME280;64981;52.930;9.266;2023-02-18T11:28:45;100792.25;;;9.92;84.34
76201;BME280;64981;52.930;9.266;2023-02-18T11:31:23;100784.91;;;9.78;84.55
76201;BME280;64981;52.930;9.266;2023-02-18T11:33:54;100803.84;;;9.99;84.39
76201;BME280;64981;52.930;9.266;2023-02-18T11:36:28;100797.06;;;9.97;83.58
76201;BME280;64981;52.930;9.266;2023-02-18T11:38:58;100795.63;;;9.76;84.68
76201;BME280;64981;52.930;9.266;2023-02-18T11:41:33;100806.81;;;9.96;83.92
76201;BME280;64981;52.930;9.266;2023-02-18T11:44:01;100806.69;;;9.80;84.92
76201;BME280;64981;52.930;9.266;2023-02-18T11:46:27;100804.09;;;9.88;84.38
76201;BME280;64981;52.930;9.266;2023-02-18T11:48:55;100813.63;;;9.81;83.95
76201;BME280;64981;52.930;9.266;2023-02-18T11:51:39;100791.84;;;9.79;84.05
76201;BME280;64981;52.930;9.266;2023-02-18T11:54:23;100813.63;;;9.81;84.09
76201;BME280;64981;52.930;9.266;2023-02-18T11:56:59;100821.41;;;9.91;84.25
76201;BME280;64981;52.930;9.266;2023-02-18T11:59:29;100816.34;;;9.97;83.10
76201;BME280;64981;52.930;9.266;2023-02-18T12:05:10;100820.13;;;9.95;84.19
76201;BME280;64981;52.930;9.266;2023-02-18T12:07:43;100829.94;;;10.02;83.22
76201;BME280;64981;52.930;9.266;2023-02-18T12:10:21;100812.25;;;10.03;82.94
76201;BME280;64981;52.930;9.266;2023-02-18T12:13:01;100819.19;;;9.78;84.06
76201;BME280;64981;52.930;9.266;2023-02-18T12:15:39;100793.88;;;9.85;83.21
76201;BME280;64981;52.930;9.266;2023-02-18T12:18:32;100822.34;;;9.82;84.12
76201;BME280;64981;52.930;9.266;2023-02-18T12:21:25;100826.34;;;9.86;83.56
76201;BME280;64981;52.930;9.266;2023-02-18T12:24:07;100817.59;;;9.85;83.40
76201;BME280;64981;52.930;9.266;2023-02-18T12:27:08;100828.31;;;9.84;83.55
76201;BME280;64981;52.930;9.266;2023-02-18T12:32:46;100816.03;;;9.74;83.55
76201;BME280;64981;52.930;9.266;2023-02-18T12:38:40;100832.88;;;9.73;83.27
76201;BME280;64981;52.930;9.266;2023-02-18T12:41:36;100835.28;;;9.67;83.48
76201;BME280;64981;52.930;9.266;2023-02-18T12:44:37;100835.25;;;9.85;83.10
76201;BME280;64981;52.930;9.266;2023-02-18T12:47:30;100838.28;;;9.72;83.53
76201;BME280;64981;52.930;9.266;2023-02-18T12:50:24;100837.97;;;9.75;83.88
76201;BME280;64981;52.930;9.266;2023-02-18T12:53:16;100849.13;;;9.69;83.67
76201;BME280;64981;52.930;9.266;2023-02-18T12:56:03;100843.88;;;9.69;83.85
76201;BME280;64981;52.930;9.266;2023-02-18T12:58:57;100842.31;;;9.84;83.30
76201;BME280;64981;52.930;9.266;2023-02-18T13:01:52;100852.81;;;9.76;83.90
76201;BME280;64981;52.930;9.266;2023-02-18T13:04:39;100839.91;;;9.65;84.13
76201;BME280;64981;52.930;9.266;2023-02-18T13:10:23;100858.19;;;9.66;83.93
76201;BME280;64981;52.930;9.266;2023-02-18T13:12:59;100859.47;;;9.62;83.78
76201;BME280;64981;52.930;9.266;2023-02-18T13:15:39;100863.13;;;9.61;84.06
76201;BME280;64981;52.930;9.266;2023-02-18T13:18:15;100843.91;;;9.51;84.00
76201;BME280;64981;52.930;9.266;2023-02-18T13:20:48;100866.09;;;9.66;83.92
76201;BME280;64981;52.930;9.266;2023-02-18T13:23:21;100866.94;;;9.67;83.95
76201;BME280;64981;52.930;9.266;2023-02-18T13:25:54;100874.25;;;9.73;83.64
76201;BME280;64981;52.930;9.266;2023-02-18T13:28:45;100874.06;;;9.74;83.52
76201;BME280;64981;52.930;9.266;2023-02-18T13:31:31;100878.63;;;9.64;84.28
76201;BME280;64981;52.930;9.266;2023-02-18T13:37:14;100882.69;;;9.59;83.83
76201;BME280;64981;52.930;9.266;2023-02-18T13:42:39;100872.00;;;9.60;84.02
76201;BME280;64981;52.930;9.266;2023-02-18T13:45:21;100881.94;;;9.66;83.92
76201;BME280;64981;52.930;9.266;2023-02-18T13:47:49;100884.22;;;9.61;83.73
76201;BME280;64981;52.930;9.266;2023-02-18T13:50:28;100894.19;;;9.75;83.53
76201;BME280;64981;52.930;9.266;2023-02-18T13:53:14;100887.38;;;9.65;83.90
76201;BME280;64981;52.930;9.266;2023-02-18T13:56:03;100890.81;;;9.65;83.95
76201;BME280;64981;52.930;9.266;2023-02-18T13:58:50;100894.72;;;9.79;83.28
76201;BME280;64981;52.930;9.266;2023-02-18T14:01:22;100897.94;;;9.65;83.54
76201;BME280;64981;52.930;9.266;2023-02-18T14:03:53;100904.31;;;9.80;83.16
76201;BME280;64981;52.930;9.266;2023-02-18T14:06:33;100898.38;;;9.60;83.58
76201;BME280;64981;52.930;9.266;2023-02-18T14:09:33;100903.88;;;9.67;83.59
76201;BME280;64981;52.930;9.266;2023-02-18T14:11:56;100908.66;;;9.71;83.71
76201;BME280;64981;52.930;9.266;2023-02-18T14:14:40;100914.47;;;9.75;83.29